sensor_id;sensor_type;location;lat;lon;timestamp;P1;durP1;ratioP1;P2;durP2;ratioP2
69434;SDS011;56625;54.322;18.582;2023-08-07T00:00:12;1.10;;;0.10;;
69434;SDS011;56625;54.322;18.582;2023-08-07T00:03:01;2.40;;;0.10;;
69434;SDS011;56625;54.322;18.582;2023-08-07T00:05:29;1.00;;;0.00;;
69434;SDS011;56625;54.322;18.582;2023-08-07T00:07:57;0.50;;;0.10;;
69434;SDS011;56625;54.322;18.582;2023-08-07T00:10:26;1.40;;;0.10;;
69434;SDS011;56625;54.322;18.582;2023-08-07T00:12:54;0.70;;;0.00;;
69434;SDS011;56625;54.322;18.582;2023-08-07T00:15:22;2.00;;;0.10;;
69434;SDS011;56625;54.322;18.582;2023-08-07T00:17:50;0.50;;;0.10;;
69434;SDS011;56625;54.322;18.582;2023-08-07T00:20:18;1.60;;;0.10;;
69434;SDS011;56625;54.322;18.582;2023-08-07T00:22:46;1.00;;;0.10;;
69434;SDS011;56625;54.322;18.582;2023-08-07T00:25:14;2.40;;;0.10;;
69434;SDS011;56625;54.322;18.582;2023-08-07T00:27:42;1.10;;;0.10;;
69434;SDS011;56625;54.322;18.582;2023-08-07T00:30:10;1.00;;;0.10;;
69434;SDS011;56625;54.322;18.582;2023-08-07T00:32:39;1.20;;;0.10;;
69434;SDS011;56625;54.322;18.582;2023-08-07T00:35:07;1.00;;;0.10;;
69434;SDS011;56625;54.322;18.582;2023-08-07T00:37:37;0.40;;;0.00;;
69434;SDS011;56625;54.322;18.582;2023-08-07T00:40:06;3.30;;;0.10;;
69434;SDS011;56625;54.322;18.582;2023-08-07T00:42:34;2.70;;;0.10;;
69434;SDS011;56625;54.322;18.582;2023-08-07T00:45:03;1.40;;;0.10;;
69434;SDS011;56625;54.322;18.582;2023-08-07T00:47:31;1.30;;;0.00;;
69434;SDS011;56625;54.322;18.582;2023-08-07T00:50:00;1.00;;;0.00;;
69434;SDS011;56625;54.322;18.582;2023-08-07T00:52:32;0.60;;;0.00;;
69434;SDS011;56625;54.322;18.582;2023-08-07T00:55:00;0.60;;;0.10;;
69434;SDS011;56625;54.322;18.582;2023-08-07T00:57:29;0.50;;;0.00;;
69434;SDS011;56625;54.322;18.582;2023-08-07T00:59:59;1.20;;;0.10;;
69434;SDS011;56625;54.322;18.582;2023-08-07T01:02:27;1.00;;;0.10;;
69434;SDS011;56625;54.322;18.582;2023-08-07T01:04:55;1.80;;;0.10;;
69434;SDS011;56625;54.322;18.582;2023-08-07T01:07:23;0.40;;;0.00;;
69434;SDS011;56625;54.322;18.582;2023-08-07T01:09:51;0.90;;;0.10;;
69434;SDS011;56625;54.322;18.582;2023-08-07T01:12:26;2.30;;;0.20;;
69434;SDS011;56625;54.322;18.582;2023-08-07T01:15:16;1.20;;;0.10;;
69434;SDS011;56625;54.322;18.582;2023-08-07T01:17:47;0.90;;;0.10;;
69434;SDS011;56625;54.322;18.582;2023-08-07T01:20:17;0.20;;;0.00;;
69434;SDS011;56625;54.322;18.582;2023-08-07T01:22:45;0.90;;;0.00;;
69434;SDS011;56625;54.322;18.582;2023-08-07T01:25:13;1.60;;;0.10;;
69434;SDS011;56625;54.322;18.582;2023-08-07T01:27:52;2.00;;;0.00;;
69434;SDS011;56625;54.322;18.582;2023-08-07T01:30:38;0.40;;;0.00;;
69434;SDS011;56625;54.322;18.582;2023-08-07T01:36:22;0.50;;;0.10;;
69434;SDS011;56625;54.322;18.582;2023-08-07T01:38:52;0.60;;;0.00;;
69434;SDS011;56625;54.322;18.582;2023-08-07T01:41:24;1.30;;;0.00;;
69434;SDS011;56625;54.322;18.582;2023-08-07T01:43:54;0.70;;;0.00;;
69434;SDS011;56625;54.322;18.582;2023-08-07T01:46:22;2.10;;;0.10;;
69434;SDS011;56625;54.322;18.582;2023-08-07T01:48:50;1.10;;;0.10;;
69434;SDS011;56625;54.322;18.582;2023-08-07T01:51:18;1.60;;;0.00;;
69434;SDS011;56625;54.322;18.582;2023-08-07T01:53:46;1.30;;;0.10;;
69434;SDS011;56625;54.322;18.582;2023-08-07T01:56:15;2.20;;;0.20;;
69434;SDS011;56625;54.322;18.582;2023-08-07T01:58:43;0.80;;;0.10;;
69434;SDS011;56625;54.322;18.582;2023-08-07T02:01:11;0.70;;;0.00;;
69434;SDS011;56625;54.322;18.582;2023-08-07T02:03:39;2.10;;;0.40;;
69434;SDS011;56625;54.322;18.582;2023-08-07T02:06:07;0.80;;;0.00;;
69434;SDS011;56625;54.322;18.582;2023-08-07T02:08:35;0.60;;;0.10;;
69434;SDS011;56625;54.322;18.582;2023-08-07T02:11:03;1.80;;;0.10;;
69434;SDS011;56625;54.322;18.582;2023-08-07T02:13:31;1.40;;;0.10;;
69434;SDS011;56625;54.322;18.582;2023-08-07T02:15:59;1.10;;;0.10;;
69434;SDS011;56625;54.322;18.582;2023-08-07T02:18:27;0.70;;;0.00;;
69434;SDS011;56625;54.322;18.582;2023-08-07T02:20:55;2.70;;;0.10;;
69434;SDS011;56625;54.322;18.582;2023-08-07T02:23:23;1.70;;;0.00;;
69434;SDS011;56625;54.322;18.582;2023-08-07T02:25:51;1.20;;;0.10;;
69434;SDS011;56625;54.322;18.582;2023-08-07T02:28:19;0.20;;;0.00;;
69434;SDS011;56625;54.322;18.582;2023-08-07T02:30:47;0.30;;;0.00;;
69434;SDS011;56625;54.322;18.582;2023-08-07T02:33:16;2.00;;;0.20;;
69434;SDS011;56625;54.322;18.582;2023-08-07T02:35:44;2.10;;;0.00;;
69434;SDS011;56625;54.322;18.582;2023-08-07T02:38:13;0.90;;;0.10;;
69434;SDS011;56625;54.322;18.582;2023-08-07T02:40:41;1.50;;;0.00;;
69434;SDS011;56625;54.322;18.582;2023-08-07T02:43:09;0.30;;;0.00;;
69434;SDS011;56625;54.322;18.582;2023-08-07T02:45:37;1.30;;;0.10;;
69434;SDS011;56625;54.322;18.582;2023-08-07T02:48:05;1.40;;;0.00;;
69434;SDS011;56625;54.322;18.582;2023-08-07T02:50:33;1.40;;;0.00;;
69434;SDS011;56625;54.322;18.582;2023-08-07T02:53:01;0.90;;;0.00;;
69434;SDS011;56625;54.322;18.582;2023-08-07T02:55:29;0.90;;;0.00;;
69434;SDS011;56625;54.322;18.582;2023-08-07T02:57:57;0.90;;;0.10;;
69434;SDS011;56625;54.322;18.582;2023-08-07T03:00:25;1.40;;;0.10;;
69434;SDS011;56625;54.322;18.582;2023-08-07T03:02:53;0.40;;;0.00;;
69434;SDS011;56625;54.322;18.582;2023-08-07T03:05:21;0.70;;;0.00;;
69434;SDS011;56625;54.322;18.582;2023-08-07T03:07:49;2.20;;;0.10;;
69434;SDS011;56625;54.322;18.582;2023-08-07T03:10:17;0.10;;;0.00;;
69434;SDS011;56625;54.322;18.582;2023-08-07T03:12:45;1.40;;;0.10;;
69434;SDS011;56625;54.322;18.582;2023-08-07T03:15:13;0.20;;;0.00;;
69434;SDS011;56625;54.322;18.582;2023-08-07T03:17:41;1.70;;;0.10;;
69434;SDS011;56625;54.322;18.582;2023-08-07T03:20:09;0.10;;;0.00;;
69434;SDS011;56625;54.322;18.582;2023-08-07T03:22:38;3.00;;;0.10;;
69434;SDS011;56625;54.322;18.582;2023-08-07T03:25:06;0.40;;;0.10;;
69434;SDS011;56625;54.322;18.582;2023-08-07T03:27:34;1.30;;;0.10;;
69434;SDS011;56625;54.322;18.582;2023-08-07T03:30:02;0.50;;;0.00;;
69434;SDS011;56625;54.322;18.582;2023-08-07T03:32:30;0.90;;;0.00;;
69434;SDS011;56625;54.322;18.582;2023-08-07T03:34:58;1.90;;;0.10;;
69434;SDS011;56625;54.322;18.582;2023-08-07T03:37:26;2.30;;;0.10;;
69434;SDS011;56625;54.322;18.582;2023-08-07T03:39:54;0.50;;;0.00;;
69434;SDS011;56625;54.322;18.582;2023-08-07T03:42:22;1.70;;;0.00;;
69434;SDS011;56625;54.322;18.582;2023-08-07T03:44:50;0.50;;;0.10;;
69434;SDS011;56625;54.322;18.582;2023-08-07T03:47:18;1.00;;;0.10;;
69434;SDS011;56625;54.322;18.582;2023-08-07T03:49:46;0.20;;;0.00;;
69434;SDS011;56625;54.322;18.582;2023-08-07T03:52:14;0.20;;;0.00;;
69434;SDS011;56625;54.322;18.582;2023-08-07T03:54:42;0.60;;;0.00;;
69434;SDS011;56625;54.322;18.582;2023-08-07T03:57:09;0.80;;;0.10;;
69434;SDS011;56625;54.322;18.582;2023-08-07T03:59:38;0.20;;;0.00;;
69434;SDS011;56625;54.322;18.582;2023-08-07T04:02:06;1.20;;;0.10;;
69434;SDS011;56625;54.322;18.582;2023-08-07T04:04:34;1.30;;;0.10;;
69434;SDS011;56625;54.322;18.582;2023-08-07T04:07:02;0.80;;;0.10;;
69434;SDS011;56625;54.322;18.582;2023-08-07T04:09:30;0.60;;;0.10;;
69434;SDS011;56625;54.322;18.582;2023-08-07T04:11:59;1.50;;;0.10;;
69434;SDS011;56625;54.322;18.582;2023-08-07T04:14:27;0.20;;;0.00;;
69434;SDS011;56625;54.322;18.582;2023-08-07T04:16:57;0.50;;;0.00;;
69434;SDS011;56625;54.322;18.582;2023-08-07T04:19:26;0.40;;;0.00;;
69434;SDS011;56625;54.322;18.582;2023-08-07T04:21:54;1.30;;;0.10;;
69434;SDS011;56625;54.322;18.582;2023-08-07T04:24:22;0.80;;;0.10;;
69434;SDS011;56625;54.322;18.582;2023-08-07T04:26:50;0.90;;;0.10;;
69434;SDS011;56625;54.322;18.582;2023-08-07T04:29:18;2.30;;;0.20;;
69434;SDS011;56625;54.322;18.582;2023-08-07T04:31:46;2.00;;;0.10;;
69434;SDS011;56625;54.322;18.582;2023-08-07T04:34:14;0.70;;;0.00;;
69434;SDS011;56625;54.322;18.582;2023-08-07T04:36:42;1.00;;;0.00;;
69434;SDS011;56625;54.322;18.582;2023-08-07T04:39:10;0.80;;;0.10;;
69434;SDS011;56625;54.322;18.582;2023-08-07T04:41:39;1.30;;;0.10;;
69434;SDS011;56625;54.322;18.582;2023-08-07T04:44:08;0.70;;;0.10;;
69434;SDS011;56625;54.322;18.582;2023-08-07T04:46:36;1.00;;;0.00;;
69434;SDS011;56625;54.322;18.582;2023-08-07T04:49:04;0.80;;;0.00;;
69434;SDS011;56625;54.322;18.582;2023-08-07T04:51:33;1.30;;;0.10;;
69434;SDS011;56625;54.322;18.582;2023-08-07T04:54:01;1.80;;;0.10;;
69434;SDS011;56625;54.322;18.582;2023-08-07T04:56:29;1.00;;;0.10;;
69434;SDS011;56625;54.322;18.582;2023-08-07T04:58:58;0.30;;;0.00;;
69434;SDS011;56625;54.322;18.582;2023-08-07T05:01:28;0.90;;;0.10;;
69434;SDS011;56625;54.322;18.582;2023-08-07T05:03:56;0.50;;;0.10;;
69434;SDS011;56625;54.322;18.582;2023-08-07T05:06:24;0.30;;;0.10;;
69434;SDS011;56625;54.322;18.582;2023-08-07T05:08:52;1.40;;;0.10;;
69434;SDS011;56625;54.322;18.582;2023-08-07T05:11:20;1.90;;;0.20;;
69434;SDS011;56625;54.322;18.582;2023-08-07T05:13:48;1.30;;;0.10;;
69434;SDS011;56625;54.322;18.582;2023-08-07T05:16:16;0.70;;;0.10;;
69434;SDS011;56625;54.322;18.582;2023-08-07T05:18:46;4.60;;;0.30;;
69434;SDS011;56625;54.322;18.582;2023-08-07T05:21:17;1.40;;;0.10;;
69434;SDS011;56625;54.322;18.582;2023-08-07T05:23:45;0.40;;;0.00;;
69434;SDS011;56625;54.322;18.582;2023-08-07T05:26:13;1.60;;;0.10;;
69434;SDS011;56625;54.322;18.582;2023-08-07T05:28:42;1.30;;;0.10;;
69434;SDS011;56625;54.322;18.582;2023-08-07T05:31:10;1.40;;;0.10;;
69434;SDS011;56625;54.322;18.582;2023-08-07T05:33:37;2.40;;;0.30;;
69434;SDS011;56625;54.322;18.582;2023-08-07T05:36:06;1.40;;;0.00;;
69434;SDS011;56625;54.322;18.582;2023-08-07T05:38:34;1.50;;;0.10;;
69434;SDS011;56625;54.322;18.582;2023-08-07T05:41:02;1.10;;;0.10;;
69434;SDS011;56625;54.322;18.582;2023-08-07T05:43:30;1.20;;;0.10;;
69434;SDS011;56625;54.322;18.582;2023-08-07T05:45:59;1.90;;;0.20;;
69434;SDS011;56625;54.322;18.582;2023-08-07T05:48:27;1.50;;;0.20;;
69434;SDS011;56625;54.322;18.582;2023-08-07T05:50:55;1.80;;;0.10;;
69434;SDS011;56625;54.322;18.582;2023-08-07T05:53:23;1.30;;;0.10;;
69434;SDS011;56625;54.322;18.582;2023-08-07T05:55:51;1.40;;;0.10;;
69434;SDS011;56625;54.322;18.582;2023-08-07T05:58:19;0.40;;;0.10;;
69434;SDS011;56625;54.322;18.582;2023-08-07T06:00:47;0.30;;;0.00;;
69434;SDS011;56625;54.322;18.582;2023-08-07T06:03:15;2.40;;;0.30;;
69434;SDS011;56625;54.322;18.582;2023-08-07T06:05:43;0.60;;;0.10;;
69434;SDS011;56625;54.322;18.582;2023-08-07T06:08:11;1.60;;;0.20;;
69434;SDS011;56625;54.322;18.582;2023-08-07T06:10:39;1.00;;;0.10;;
69434;SDS011;56625;54.322;18.582;2023-08-07T06:13:07;0.70;;;0.10;;
69434;SDS011;56625;54.322;18.582;2023-08-07T06:15:41;1.70;;;0.10;;
69434;SDS011;56625;54.322;18.582;2023-08-07T06:18:09;0.80;;;0.10;;
69434;SDS011;56625;54.322;18.582;2023-08-07T06:20:36;0.70;;;0.10;;
69434;SDS011;56625;54.322;18.582;2023-08-07T06:23:04;0.40;;;0.10;;
69434;SDS011;56625;54.322;18.582;2023-08-07T06:25:32;1.90;;;0.20;;
69434;SDS011;56625;54.322;18.582;2023-08-07T06:28:00;2.80;;;0.20;;
69434;SDS011;56625;54.322;18.582;2023-08-07T06:30:28;0.80;;;0.10;;
69434;SDS011;56625;54.322;18.582;2023-08-07T06:32:56;0.80;;;0.20;;
69434;SDS011;56625;54.322;18.582;2023-08-07T06:35:24;1.30;;;0.20;;
69434;SDS011;56625;54.322;18.582;2023-08-07T06:37:52;1.00;;;0.10;;
69434;SDS011;56625;54.322;18.582;2023-08-07T06:40:20;1.30;;;0.10;;
69434;SDS011;56625;54.322;18.582;2023-08-07T06:42:47;0.50;;;0.10;;
69434;SDS011;56625;54.322;18.582;2023-08-07T06:45:15;0.40;;;0.10;;
69434;SDS011;56625;54.322;18.582;2023-08-07T06:47:43;1.10;;;0.00;;
69434;SDS011;56625;54.322;18.582;2023-08-07T06:50:12;1.80;;;0.20;;
69434;SDS011;56625;54.322;18.582;2023-08-07T06:52:41;0.40;;;0.10;;
69434;SDS011;56625;54.322;18.582;2023-08-07T06:55:08;2.00;;;0.20;;
69434;SDS011;56625;54.322;18.582;2023-08-07T06:57:36;1.20;;;0.20;;
69434;SDS011;56625;54.322;18.582;2023-08-07T07:00:05;1.70;;;0.20;;
69434;SDS011;56625;54.322;18.582;2023-08-07T07:02:33;0.90;;;0.10;;
69434;SDS011;56625;54.322;18.582;2023-08-07T07:05:02;0.40;;;0.00;;
69434;SDS011;56625;54.322;18.582;2023-08-07T07:07:30;0.80;;;0.10;;
69434;SDS011;56625;54.322;18.582;2023-08-07T07:09:58;1.10;;;0.10;;
69434;SDS011;56625;54.322;18.582;2023-08-07T07:12:29;2.00;;;0.30;;
69434;SDS011;56625;54.322;18.582;2023-08-07T07:14:57;0.50;;;0.10;;
69434;SDS011;56625;54.322;18.582;2023-08-07T07:17:25;0.70;;;0.10;;
69434;SDS011;56625;54.322;18.582;2023-08-07T07:19:53;1.20;;;0.20;;
69434;SDS011;56625;54.322;18.582;2023-08-07T07:22:21;2.00;;;0.20;;
69434;SDS011;56625;54.322;18.582;2023-08-07T07:24:49;3.30;;;0.30;;
69434;SDS011;56625;54.322;18.582;2023-08-07T07:27:17;0.90;;;0.20;;
69434;SDS011;56625;54.322;18.582;2023-08-07T07:29:48;0.60;;;0.10;;
69434;SDS011;56625;54.322;18.582;2023-08-07T07:32:16;0.60;;;0.10;;
69434;SDS011;56625;54.322;18.582;2023-08-07T07:34:44;2.00;;;0.10;;
69434;SDS011;56625;54.322;18.582;2023-08-07T07:37:13;0.80;;;0.10;;
69434;SDS011;56625;54.322;18.582;2023-08-07T07:39:42;0.70;;;0.00;;
69434;SDS011;56625;54.322;18.582;2023-08-07T07:42:10;1.10;;;0.10;;
69434;SDS011;56625;54.322;18.582;2023-08-07T07:44:38;1.10;;;0.20;;
69434;SDS011;56625;54.322;18.582;2023-08-07T07:47:08;8.20;;;0.60;;
69434;SDS011;56625;54.322;18.582;2023-08-07T07:49:45;1.60;;;0.30;;
69434;SDS011;56625;54.322;18.582;2023-08-07T07:52:17;11.40;;;0.60;;
69434;SDS011;56625;54.322;18.582;2023-08-07T07:54:44;1.90;;;0.20;;
69434;SDS011;56625;54.322;18.582;2023-08-07T07:57:12;8.40;;;0.80;;
69434;SDS011;56625;54.322;18.582;2023-08-07T07:59:40;2.00;;;0.20;;
69434;SDS011;56625;54.322;18.582;2023-08-07T08:02:08;7.90;;;0.50;;
69434;SDS011;56625;54.322;18.582;2023-08-07T08:04:37;4.30;;;0.20;;
69434;SDS011;56625;54.322;18.582;2023-08-07T08:07:05;2.30;;;0.30;;
69434;SDS011;56625;54.322;18.582;2023-08-07T08:09:33;2.90;;;0.20;;
69434;SDS011;56625;54.322;18.582;2023-08-07T08:12:02;1.40;;;0.20;;
69434;SDS011;56625;54.322;18.582;2023-08-07T08:14:31;1.30;;;0.20;;
69434;SDS011;56625;54.322;18.582;2023-08-07T08:17:13;2.00;;;0.20;;
69434;SDS011;56625;54.322;18.582;2023-08-07T08:19:41;3.60;;;0.30;;
69434;SDS011;56625;54.322;18.582;2023-08-07T08:22:18;1.90;;;0.30;;
69434;SDS011;56625;54.322;18.582;2023-08-07T08:24:46;0.60;;;0.10;;
69434;SDS011;56625;54.322;18.582;2023-08-07T08:27:15;1.30;;;0.20;;
69434;SDS011;56625;54.322;18.582;2023-08-07T08:29:45;2.00;;;0.30;;
69434;SDS011;56625;54.322;18.582;2023-08-07T08:32:13;1.10;;;0.20;;
69434;SDS011;56625;54.322;18.582;2023-08-07T08:34:41;1.50;;;0.20;;
69434;SDS011;56625;54.322;18.582;2023-08-07T08:37:09;1.20;;;0.20;;
69434;SDS011;56625;54.322;18.582;2023-08-07T08:39:39;1.10;;;0.20;;
69434;SDS011;56625;54.322;18.582;2023-08-07T08:42:11;4.60;;;0.40;;
69434;SDS011;56625;54.322;18.582;2023-08-07T08:44:52;1.70;;;0.30;;
69434;SDS011;56625;54.322;18.582;2023-08-07T08:47:21;2.30;;;0.30;;
69434;SDS011;56625;54.322;18.582;2023-08-07T08:49:56;1.50;;;0.20;;
69434;SDS011;56625;54.322;18.582;2023-08-07T08:52:31;1.10;;;0.20;;
69434;SDS011;56625;54.322;18.582;2023-08-07T08:55:00;1.50;;;0.30;;
69434;SDS011;56625;54.322;18.582;2023-08-07T08:57:30;3.40;;;0.40;;
69434;SDS011;56625;54.322;18.582;2023-08-07T08:59:58;1.90;;;0.10;;
69434;SDS011;56625;54.322;18.582;2023-08-07T09:02:27;1.20;;;0.20;;
69434;SDS011;56625;54.322;18.582;2023-08-07T09:04:56;2.00;;;0.30;;
69434;SDS011;56625;54.322;18.582;2023-08-07T09:07:24;2.40;;;0.20;;
69434;SDS011;56625;54.322;18.582;2023-08-07T09:09:55;1.40;;;0.20;;
69434;SDS011;56625;54.322;18.582;2023-08-07T09:12:26;8.80;;;0.60;;
69434;SDS011;56625;54.322;18.582;2023-08-07T09:14:57;1.10;;;0.20;;
69434;SDS011;56625;54.322;18.582;2023-08-07T09:17:31;1.20;;;0.20;;
69434;SDS011;56625;54.322;18.582;2023-08-07T09:20:03;1.80;;;0.20;;
69434;SDS011;56625;54.322;18.582;2023-08-07T09:22:32;1.20;;;0.20;;
69434;SDS011;56625;54.322;18.582;2023-08-07T09:25:00;1.30;;;0.40;;
69434;SDS011;56625;54.322;18.582;2023-08-07T09:27:28;1.40;;;0.10;;
69434;SDS011;56625;54.322;18.582;2023-08-07T09:29:58;0.80;;;0.20;;
69434;SDS011;56625;54.322;18.582;2023-08-07T09:32:26;3.40;;;0.30;;
69434;SDS011;56625;54.322;18.582;2023-08-07T09:34:55;1.40;;;0.30;;
69434;SDS011;56625;54.322;18.582;2023-08-07T09:37:23;1.20;;;0.20;;
69434;SDS011;56625;54.322;18.582;2023-08-07T09:39:51;4.10;;;0.30;;
69434;SDS011;56625;54.322;18.582;2023-08-07T09:42:20;0.60;;;0.10;;
69434;SDS011;56625;54.322;18.582;2023-08-07T09:44:48;1.80;;;0.10;;
69434;SDS011;56625;54.322;18.582;2023-08-07T09:47:17;11.50;;;0.80;;
69434;SDS011;56625;54.322;18.582;2023-08-07T09:49:47;2.10;;;0.30;;
69434;SDS011;56625;54.322;18.582;2023-08-07T09:52:15;3.50;;;0.30;;
69434;SDS011;56625;54.322;18.582;2023-08-07T09:54:43;3.70;;;0.30;;
69434;SDS011;56625;54.322;18.582;2023-08-07T09:57:11;2.40;;;0.30;;
69434;SDS011;56625;54.322;18.582;2023-08-07T09:59:40;3.60;;;0.40;;
69434;SDS011;56625;54.322;18.582;2023-08-07T10:02:08;2.20;;;0.30;;
69434;SDS011;56625;54.322;18.582;2023-08-07T10:04:39;1.70;;;0.20;;
69434;SDS011;56625;54.322;18.582;2023-08-07T10:07:09;2.70;;;0.40;;
69434;SDS011;56625;54.322;18.582;2023-08-07T10:09:40;1.80;;;0.40;;
69434;SDS011;56625;54.322;18.582;2023-08-07T10:12:09;3.90;;;0.50;;
69434;SDS011;56625;54.322;18.582;2023-08-07T10:14:38;4.20;;;0.40;;
69434;SDS011;56625;54.322;18.582;2023-08-07T10:17:09;1.70;;;0.20;;
69434;SDS011;56625;54.322;18.582;2023-08-07T10:19:38;2.30;;;0.30;;
69434;SDS011;56625;54.322;18.582;2023-08-07T10:22:06;4.40;;;0.50;;
69434;SDS011;56625;54.322;18.582;2023-08-07T10:24:36;3.90;;;0.30;;
69434;SDS011;56625;54.322;18.582;2023-08-07T10:27:11;4.00;;;0.40;;
69434;SDS011;56625;54.322;18.582;2023-08-07T10:29:45;2.30;;;0.30;;
69434;SDS011;56625;54.322;18.582;2023-08-07T10:32:17;5.20;;;0.80;;
69434;SDS011;56625;54.322;18.582;2023-08-07T10:34:47;2.10;;;0.30;;
69434;SDS011;56625;54.322;18.582;2023-08-07T10:40:12;4.40;;;0.90;;
69434;SDS011;56625;54.322;18.582;2023-08-07T10:45:22;3.30;;;0.40;;
69434;SDS011;56625;54.322;18.582;2023-08-07T10:53:35;2.20;;;0.30;;
69434;SDS011;56625;54.322;18.582;2023-08-07T10:56:32;3.10;;;0.60;;
69434;SDS011;56625;54.322;18.582;2023-08-07T10:59:11;1.80;;;0.40;;
69434;SDS011;56625;54.322;18.582;2023-08-07T11:01:41;2.80;;;0.50;;
69434;SDS011;56625;54.322;18.582;2023-08-07T11:04:12;3.90;;;1.00;;
69434;SDS011;56625;54.322;18.582;2023-08-07T11:06:43;4.50;;;0.40;;
69434;SDS011;56625;54.322;18.582;2023-08-07T11:09:14;3.80;;;0.80;;
69434;SDS011;56625;54.322;18.582;2023-08-07T11:11:47;2.80;;;0.60;;
69434;SDS011;56625;54.322;18.582;2023-08-07T11:14:18;4.00;;;0.70;;
69434;SDS011;56625;54.322;18.582;2023-08-07T11:17:16;1.60;;;0.40;;
69434;SDS011;56625;54.322;18.582;2023-08-07T11:19:46;1.90;;;0.50;;
69434;SDS011;56625;54.322;18.582;2023-08-07T11:22:15;1.40;;;0.40;;
69434;SDS011;56625;54.322;18.582;2023-08-07T11:24:47;2.50;;;0.40;;
69434;SDS011;56625;54.322;18.582;2023-08-07T11:27:15;3.40;;;0.40;;
69434;SDS011;56625;54.322;18.582;2023-08-07T11:29:47;4.00;;;0.50;;
69434;SDS011;56625;54.322;18.582;2023-08-07T11:32:18;2.70;;;0.40;;
69434;SDS011;56625;54.322;18.582;2023-08-07T11:34:49;2.00;;;0.30;;
69434;SDS011;56625;54.322;18.582;2023-08-07T11:37:20;2.20;;;0.40;;
69434;SDS011;56625;54.322;18.582;2023-08-07T11:39:48;2.90;;;0.50;;
69434;SDS011;56625;54.322;18.582;2023-08-07T11:42:16;2.20;;;0.40;;
69434;SDS011;56625;54.322;18.582;2023-08-07T11:44:44;2.20;;;0.30;;
69434;SDS011;56625;54.322;18.582;2023-08-07T11:47:12;3.60;;;0.40;;
69434;SDS011;56625;54.322;18.582;2023-08-07T11:49:40;2.70;;;0.60;;
69434;SDS011;56625;54.322;18.582;2023-08-07T11:52:08;1.70;;;0.30;;
69434;SDS011;56625;54.322;18.582;2023-08-07T11:54:36;3.00;;;0.40;;
69434;SDS011;56625;54.322;18.582;2023-08-07T11:57:21;1.40;;;0.30;;
69434;SDS011;56625;54.322;18.582;2023-08-07T11:59:50;2.70;;;0.60;;
69434;SDS011;56625;54.322;18.582;2023-08-07T12:02:24;2.20;;;0.30;;
69434;SDS011;56625;54.322;18.582;2023-08-07T12:04:57;7.70;;;0.60;;
69434;SDS011;56625;54.322;18.582;2023-08-07T12:07:27;2.30;;;0.30;;
69434;SDS011;56625;54.322;18.582;2023-08-07T12:10:03;2.00;;;0.40;;
69434;SDS011;56625;54.322;18.582;2023-08-07T12:12:36;3.70;;;0.70;;
69434;SDS011;56625;54.322;18.582;2023-08-07T12:15:09;7.10;;;0.60;;
69434;SDS011;56625;54.322;18.582;2023-08-07T12:17:37;6.80;;;0.60;;
69434;SDS011;56625;54.322;18.582;2023-08-07T12:20:06;2.90;;;0.40;;
69434;SDS011;56625;54.322;18.582;2023-08-07T12:22:39;2.10;;;0.40;;
69434;SDS011;56625;54.322;18.582;2023-08-07T12:25:07;2.90;;;0.40;;
69434;SDS011;56625;54.322;18.582;2023-08-07T12:27:35;2.60;;;0.50;;
69434;SDS011;56625;54.322;18.582;2023-08-07T12:30:03;2.90;;;0.50;;
69434;SDS011;56625;54.322;18.582;2023-08-07T12:32:32;4.00;;;0.70;;
69434;SDS011;56625;54.322;18.582;2023-08-07T12:35:00;5.40;;;0.60;;
69434;SDS011;56625;54.322;18.582;2023-08-07T12:37:32;4.50;;;0.70;;
69434;SDS011;56625;54.322;18.582;2023-08-07T12:40:00;3.80;;;0.60;;
69434;SDS011;56625;54.322;18.582;2023-08-07T12:42:31;3.80;;;0.70;;
69434;SDS011;56625;54.322;18.582;2023-08-07T12:44:59;4.10;;;0.80;;
69434;SDS011;56625;54.322;18.582;2023-08-07T12:47:27;2.70;;;0.40;;
69434;SDS011;56625;54.322;18.582;2023-08-07T12:49:55;2.60;;;0.50;;
69434;SDS011;56625;54.322;18.582;2023-08-07T12:52:23;7.00;;;0.80;;
69434;SDS011;56625;54.322;18.582;2023-08-07T12:54:51;3.30;;;0.50;;
69434;SDS011;56625;54.322;18.582;2023-08-07T12:57:18;3.60;;;0.60;;
69434;SDS011;56625;54.322;18.582;2023-08-07T12:59:46;2.90;;;0.60;;
69434;SDS011;56625;54.322;18.582;2023-08-07T13:02:14;3.30;;;0.70;;
69434;SDS011;56625;54.322;18.582;2023-08-07T13:04:42;1.90;;;0.40;;
69434;SDS011;56625;54.322;18.582;2023-08-07T13:07:10;4.90;;;1.10;;
69434;SDS011;56625;54.322;18.582;2023-08-07T13:09:38;5.20;;;0.50;;
69434;SDS011;56625;54.322;18.582;2023-08-07T13:12:06;5.30;;;0.50;;
69434;SDS011;56625;54.322;18.582;2023-08-07T13:14:34;3.10;;;0.60;;
69434;SDS011;56625;54.322;18.582;2023-08-07T13:17:02;3.50;;;0.90;;
69434;SDS011;56625;54.322;18.582;2023-08-07T13:19:30;3.70;;;0.50;;
69434;SDS011;56625;54.322;18.582;2023-08-07T13:21:58;2.90;;;0.50;;
69434;SDS011;56625;54.322;18.582;2023-08-07T13:24:26;3.80;;;0.50;;
69434;SDS011;56625;54.322;18.582;2023-08-07T13:26:54;4.60;;;0.40;;
69434;SDS011;56625;54.322;18.582;2023-08-07T13:29:23;2.80;;;0.50;;
69434;SDS011;56625;54.322;18.582;2023-08-07T13:31:51;3.50;;;0.40;;
69434;SDS011;56625;54.322;18.582;2023-08-07T13:34:19;3.30;;;0.70;;
69434;SDS011;56625;54.322;18.582;2023-08-07T13:36:52;2.40;;;0.50;;
69434;SDS011;56625;54.322;18.582;2023-08-07T13:39:20;4.00;;;0.70;;
69434;SDS011;56625;54.322;18.582;2023-08-07T13:41:52;2.90;;;0.30;;
69434;SDS011;56625;54.322;18.582;2023-08-07T13:44:20;4.20;;;0.70;;
69434;SDS011;56625;54.322;18.582;2023-08-07T13:46:49;3.90;;;0.50;;
69434;SDS011;56625;54.322;18.582;2023-08-07T13:49:17;4.50;;;0.50;;
69434;SDS011;56625;54.322;18.582;2023-08-07T13:51:45;4.10;;;0.50;;
69434;SDS011;56625;54.322;18.582;2023-08-07T13:54:13;3.80;;;0.80;;
69434;SDS011;56625;54.322;18.582;2023-08-07T13:56:41;2.40;;;0.50;;
69434;SDS011;56625;54.322;18.582;2023-08-07T13:59:09;3.10;;;0.50;;
69434;SDS011;56625;54.322;18.582;2023-08-07T14:01:37;4.70;;;0.70;;
69434;SDS011;56625;54.322;18.582;2023-08-07T14:04:05;5.40;;;0.90;;
69434;SDS011;56625;54.322;18.582;2023-08-07T14:06:34;2.40;;;0.30;;
69434;SDS011;56625;54.322;18.582;2023-08-07T14:09:02;7.40;;;0.60;;
69434;SDS011;56625;54.322;18.582;2023-08-07T14:11:30;21.30;;;2.40;;
69434;SDS011;56625;54.322;18.582;2023-08-07T14:13:58;14.40;;;1.90;;
69434;SDS011;56625;54.322;18.582;2023-08-07T14:16:26;3.10;;;0.40;;
69434;SDS011;56625;54.322;18.582;2023-08-07T14:18:54;5.80;;;0.70;;
69434;SDS011;56625;54.322;18.582;2023-08-07T14:21:22;8.00;;;1.00;;
69434;SDS011;56625;54.322;18.582;2023-08-07T14:23:51;11.30;;;1.00;;
69434;SDS011;56625;54.322;18.582;2023-08-07T14:26:19;20.60;;;2.10;;
69434;SDS011;56625;54.322;18.582;2023-08-07T14:28:48;3.60;;;0.60;;
69434;SDS011;56625;54.322;18.582;2023-08-07T14:31:16;3.20;;;0.30;;
69434;SDS011;56625;54.322;18.582;2023-08-07T14:33:44;6.10;;;0.80;;
69434;SDS011;56625;54.322;18.582;2023-08-07T14:36:12;2.70;;;0.50;;
69434;SDS011;56625;54.322;18.582;2023-08-07T14:38:40;4.30;;;0.70;;
69434;SDS011;56625;54.322;18.582;2023-08-07T14:41:08;2.60;;;0.50;;
69434;SDS011;56625;54.322;18.582;2023-08-07T14:43:36;2.10;;;0.50;;
69434;SDS011;56625;54.322;18.582;2023-08-07T14:46:04;3.40;;;0.60;;
69434;SDS011;56625;54.322;18.582;2023-08-07T14:48:32;2.90;;;0.70;;
69434;SDS011;56625;54.322;18.582;2023-08-07T14:51:00;4.70;;;1.00;;
69434;SDS011;56625;54.322;18.582;2023-08-07T14:53:28;7.20;;;1.00;;
69434;SDS011;56625;54.322;18.582;2023-08-07T14:55:56;3.40;;;0.70;;
69434;SDS011;56625;54.322;18.582;2023-08-07T14:58:24;3.90;;;0.50;;